Avery, Idaho
Current Conditions -  °F | °C
As of 8:53 AM on Thursday 30 Oct 2014 (Local Time) from KMLP Reporting Station
Moderate Fog Moderate Fog  
Wind Chill: -3°   Ceiling: 100
Heat Index:   Visibility: 0mi
Dew Point:   Wind: 12mph
Humidity: 100%   Direction: 150°SSE
Pressure: 30.18"   Gusts: 18mph
Location:  47.25°N, 115.81°W
Report Text: KMLP 301553Z AUTO 15010G16KT M1/4SM FG VV001 02/02 A3018 RMK AO2 SLP188 T00170017
Loading
Personal Weather Stations






























Interactive Weather Map
Tropical Storm Tracking
New forecast layout! Learn more

10-Day Weather Forecast

Advertisements
Track Severe Weather on mobile